createdAt,value
2023-10-04T00:00:10.563Z,16.9
2023-10-04T00:01:41.089Z,16.9
2023-10-04T00:03:11.856Z,16.9
2023-10-04T00:04:42.711Z,16.9
2023-10-04T00:06:13.286Z,16.9
2023-10-04T00:07:43.854Z,16.9
2023-10-04T00:09:14.441Z,16.9
2023-10-04T00:10:44.981Z,16.9
2023-10-04T00:12:15.452Z,16.9
2023-10-04T00:13:45.964Z,16.9
2023-10-04T00:15:16.669Z,16.9
2023-10-04T00:16:47.197Z,16.9
2023-10-04T00:18:17.929Z,16.9
2023-10-04T00:19:48.396Z,16.9
2023-10-04T00:21:18.929Z,16.9
2023-10-04T00:22:49.408Z,16.9
2023-10-04T00:24:20.065Z,16.9
2023-10-04T00:25:50.682Z,16.9
2023-10-04T00:27:21.309Z,17
2023-10-04T00:28:51.795Z,16.9
2023-10-04T00:30:22.579Z,16.9
2023-10-04T00:31:53.160Z,16.9
2023-10-04T00:33:23.938Z,16.9
2023-10-04T00:34:54.561Z,16.9
2023-10-04T00:36:25.051Z,16.9
2023-10-04T00:37:55.488Z,16.9
2023-10-04T00:39:26.020Z,16.9
2023-10-04T00:40:56.568Z,16.9
2023-10-04T00:41:13.420Z,16.9
2023-10-04T00:42:43.874Z,16.9
2023-10-04T00:44:14.423Z,16.9
2023-10-04T00:45:45.035Z,16.9
2023-10-04T00:47:15.523Z,16.9
2023-10-04T00:48:46.025Z,16.9
2023-10-04T00:50:16.480Z,16.9
2023-10-04T00:51:46.888Z,16.9
2023-10-04T00:53:17.301Z,16.9
2023-10-04T00:54:47.762Z,16.9
2023-10-04T00:56:18.273Z,16.9
2023-10-04T00:57:48.670Z,16.9
2023-10-04T00:59:19.099Z,16.9
2023-10-04T01:00:49.551Z,16.9
2023-10-04T01:02:20.159Z,16.9
2023-10-04T01:03:51.245Z,16.9
2023-10-04T01:05:21.790Z,16.9
2023-10-04T01:06:52.326Z,16.9
2023-10-04T01:08:22.753Z,16.9
2023-10-04T01:09:53.158Z,16.9
2023-10-04T01:11:23.668Z,16.9
2023-10-04T01:12:54.122Z,16.9
2023-10-04T01:14:24.522Z,16.8
2023-10-04T01:15:55.048Z,16.8
2023-10-04T01:17:25.563Z,16.8
2023-10-04T01:18:56.032Z,16.9
2023-10-04T01:20:26.509Z,16.9
2023-10-04T01:21:56.935Z,16.9
2023-10-04T01:23:27.399Z,16.8
2023-10-04T01:24:57.873Z,16.9
2023-10-04T01:26:28.805Z,16.9
2023-10-04T01:27:59.229Z,16.9
2023-10-04T01:29:29.643Z,16.9
2023-10-04T01:31:00.346Z,16.9
2023-10-04T01:32:32.521Z,16.9
2023-10-04T01:34:03.022Z,16.9
2023-10-04T01:35:33.477Z,16.9
2023-10-04T01:37:03.918Z,16.8
2023-10-04T01:38:34.390Z,16.8
2023-10-04T01:40:04.844Z,16.8
2023-10-04T01:41:35.334Z,16.8
2023-10-04T01:43:05.859Z,16.8
2023-10-04T01:44:36.313Z,16.8
2023-10-04T01:46:06.757Z,16.8
2023-10-04T01:47:37.239Z,16.8
2023-10-04T01:49:07.817Z,16.8
2023-10-04T01:50:38.309Z,16.8
2023-10-04T01:52:08.733Z,16.8
2023-10-04T01:53:39.499Z,16.8
2023-10-04T01:55:09.984Z,16.8
2023-10-04T01:56:40.461Z,16.8
2023-10-04T01:58:10.906Z,16.8
2023-10-04T01:59:41.341Z,16.8
2023-10-04T02:03:18.234Z,16.8
2023-10-04T02:04:48.799Z,16.8
2023-10-04T02:06:19.302Z,16.8
2023-10-04T02:07:49.808Z,16.8
2023-10-04T02:09:20.291Z,16.8
2023-10-04T02:10:50.764Z,16.8
2023-10-04T02:12:21.401Z,16.8
2023-10-04T02:13:51.953Z,16.8
2023-10-04T02:15:22.623Z,16.8
2023-10-04T02:16:53.215Z,16.8
2023-10-04T02:18:24.044Z,16.8
2023-10-04T02:19:54.527Z,16.8
2023-10-04T02:21:25.100Z,16.8
2023-10-04T02:22:55.541Z,16.8
2023-10-04T02:24:26.052Z,16.8
2023-10-04T02:25:56.491Z,16.8
2023-10-04T02:27:27.027Z,16.8
2023-10-04T02:28:57.539Z,16.8
2023-10-04T02:30:28.157Z,16.8
2023-10-04T02:31:58.699Z,16.8
2023-10-04T02:33:29.386Z,16.8
2023-10-04T02:34:59.935Z,16.8
2023-10-04T02:36:30.618Z,16.8
2023-10-04T02:38:01.154Z,16.8
2023-10-04T02:39:31.683Z,16.8
2023-10-04T02:41:02.188Z,16.8
2023-10-04T02:42:32.771Z,16.8
2023-10-04T02:44:03.316Z,16.8
2023-10-04T02:45:33.882Z,16.8
2023-10-04T02:47:04.366Z,16.8
2023-10-04T02:48:35.345Z,16.8
2023-10-04T02:50:05.885Z,16.8
2023-10-04T02:51:36.395Z,16.8
2023-10-04T02:53:06.937Z,16.8
2023-10-04T02:54:37.474Z,16.8
2023-10-04T02:56:08.000Z,16.8
2023-10-04T02:57:38.722Z,16.8
2023-10-04T02:59:09.220Z,16.8
2023-10-04T03:00:39.782Z,16.8
2023-10-04T03:02:10.274Z,16.8
2023-10-04T03:03:40.897Z,16.8
2023-10-04T03:05:11.412Z,16.8
2023-10-04T03:06:41.942Z,16.8
2023-10-04T03:08:12.464Z,16.8
2023-10-04T03:09:42.976Z,16.8
2023-10-04T03:11:13.471Z,16.8
2023-10-04T03:12:44.091Z,16.8
2023-10-04T03:14:14.559Z,16.8
2023-10-04T03:15:45.167Z,16.8
2023-10-04T03:17:15.765Z,16.8
2023-10-04T03:18:46.654Z,16.8
2023-10-04T03:20:17.217Z,16.8
2023-10-04T03:21:48.066Z,16.8
2023-10-04T03:23:18.624Z,16.8
2023-10-04T03:24:49.167Z,16.8
2023-10-04T03:26:19.707Z,16.8
2023-10-04T03:27:50.266Z,16.8
2023-10-04T03:29:20.726Z,16.8
2023-10-04T03:30:51.432Z,16.7
2023-10-04T03:32:22.094Z,16.8
2023-10-04T03:33:52.828Z,16.7
2023-10-04T03:35:23.330Z,16.7
2023-10-04T03:36:53.822Z,16.7
2023-10-04T03:38:24.254Z,16.7
2023-10-04T03:39:54.676Z,16.7
2023-10-04T03:41:25.200Z,16.8
2023-10-04T03:42:55.676Z,16.7
2023-10-04T03:44:29.809Z,16.8
2023-10-04T03:46:00.553Z,16.7
2023-10-04T03:47:31.099Z,16.8
2023-10-04T03:49:01.631Z,16.7
2023-10-04T03:50:32.128Z,16.8
2023-10-04T03:52:02.686Z,16.7
2023-10-04T03:53:50.035Z,16.7
2023-10-04T03:55:20.449Z,16.8
2023-10-04T03:56:50.864Z,16.8
2023-10-04T03:58:21.331Z,16.8
2023-10-04T03:59:51.807Z,16.8
2023-10-04T04:01:22.249Z,16.8
2023-10-04T04:02:52.983Z,16.8
2023-10-04T04:04:24.051Z,16.8
2023-10-04T04:05:54.611Z,16.8
2023-10-04T04:07:25.057Z,16.8
2023-10-04T04:08:55.457Z,16.8
2023-10-04T04:10:25.878Z,16.8
2023-10-04T04:11:56.311Z,16.8
2023-10-04T04:13:26.792Z,16.8
2023-10-04T04:14:57.239Z,16.8
2023-10-04T04:16:27.737Z,16.8
2023-10-04T04:17:58.302Z,16.8
2023-10-04T04:19:28.810Z,16.8
2023-10-04T04:20:59.272Z,16.7
2023-10-04T04:22:29.763Z,16.8
2023-10-04T04:24:00.164Z,16.8
2023-10-04T04:25:30.615Z,16.7
2023-10-04T04:27:01.118Z,16.7
2023-10-04T04:28:31.633Z,16.7
2023-10-04T04:30:02.161Z,16.7
2023-10-04T04:31:32.699Z,16.7
2023-10-04T04:33:03.374Z,16.7
2023-10-04T04:34:33.928Z,16.7
2023-10-04T04:36:04.432Z,16.7
2023-10-04T04:37:34.979Z,16.7
2023-10-04T04:39:06.496Z,16.7
2023-10-04T04:40:37.585Z,16.7
2023-10-04T04:42:08.059Z,16.7
2023-10-04T04:43:39.117Z,16.7
2023-10-04T04:45:09.806Z,16.7
2023-10-04T04:46:40.427Z,16.7
2023-10-04T04:48:11.179Z,16.7
2023-10-04T04:49:41.632Z,16.7
2023-10-04T04:51:12.271Z,16.7
2023-10-04T04:52:43.068Z,16.7
2023-10-04T04:54:13.595Z,16.7
2023-10-04T04:55:44.120Z,16.7
2023-10-04T04:57:14.733Z,16.7
2023-10-04T04:58:45.339Z,16.7
2023-10-04T05:00:15.889Z,16.7
2023-10-04T05:01:46.377Z,16.7
2023-10-04T05:03:16.903Z,16.7
2023-10-04T05:04:47.402Z,16.6
2023-10-04T05:06:17.962Z,16.7
2023-10-04T05:07:48.414Z,16.7
2023-10-04T05:09:18.874Z,16.7
2023-10-04T05:10:49.393Z,16.6
2023-10-04T05:12:20.067Z,16.6
2023-10-04T05:13:50.631Z,16.6
2023-10-04T05:15:21.130Z,16.6
2023-10-04T05:16:51.693Z,16.7
2023-10-04T05:18:22.301Z,16.6
2023-10-04T05:19:52.784Z,16.6
2023-10-04T05:21:23.309Z,16.6
2023-10-04T05:22:53.846Z,16.6
2023-10-04T05:24:24.321Z,16.6
2023-10-04T05:25:54.777Z,16.6
2023-10-04T05:27:25.303Z,16.7
2023-10-04T05:28:55.804Z,16.6
2023-10-04T05:30:26.323Z,16.6
2023-10-04T05:31:56.905Z,16.6
2023-10-04T05:33:27.837Z,16.7
2023-10-04T05:34:58.324Z,16.6
2023-10-04T05:36:28.845Z,16.6
2023-10-04T05:37:59.380Z,16.6
2023-10-04T05:39:29.906Z,16.6
2023-10-04T05:41:00.478Z,16.6
2023-10-04T05:41:18.243Z,16.6
2023-10-04T05:42:48.758Z,16.6
2023-10-04T05:44:19.296Z,16.6
2023-10-04T05:45:50.479Z,16.6
2023-10-04T05:47:20.988Z,16.6
2023-10-04T05:48:51.561Z,16.6
2023-10-04T05:50:22.028Z,16.6
2023-10-04T05:51:52.608Z,16.6
2023-10-04T05:53:23.549Z,16.6
2023-10-04T05:54:54.194Z,16.6
2023-10-04T05:56:24.742Z,16.6
2023-10-04T05:57:55.296Z,16.6
2023-10-04T05:59:25.835Z,16.6
2023-10-04T06:00:57.600Z,16.6
2023-10-04T06:02:28.244Z,16.6
2023-10-04T06:03:58.913Z,16.6
2023-10-04T06:05:29.444Z,16.6
2023-10-04T06:06:59.926Z,16.6
2023-10-04T06:08:30.341Z,16.6
2023-10-04T06:10:00.794Z,16.6
2023-10-04T06:11:31.289Z,16.6
2023-10-04T06:13:01.712Z,16.6
2023-10-04T06:14:32.314Z,16.6
2023-10-04T06:16:02.939Z,16.6
2023-10-04T06:17:33.465Z,16.6
2023-10-04T06:19:31.418Z,16.6
2023-10-04T06:21:02.930Z,16.6
2023-10-04T06:22:33.424Z,16.6
2023-10-04T06:24:03.843Z,16.6
2023-10-04T06:25:34.360Z,16.6
2023-10-04T06:27:04.858Z,16.6
2023-10-04T06:28:35.327Z,16.6
2023-10-04T06:30:05.851Z,16.6
2023-10-04T06:31:36.452Z,16.6
2023-10-04T06:33:07.110Z,16.6
2023-10-04T06:34:37.603Z,16.6
2023-10-04T06:36:08.195Z,16.6
2023-10-04T06:37:38.660Z,16.6
2023-10-04T06:39:09.232Z,16.6
2023-10-04T06:40:39.750Z,16.6
2023-10-04T06:42:10.244Z,16.6
2023-10-04T06:43:40.744Z,16.6
2023-10-04T06:45:11.342Z,16.6
2023-10-04T06:46:41.906Z,16.6
2023-10-04T06:48:13.190Z,16.6
2023-10-04T06:49:43.788Z,16.6
2023-10-04T06:51:14.318Z,16.6
2023-10-04T06:52:44.958Z,16.6
2023-10-04T06:54:15.703Z,16.6
2023-10-04T06:55:46.147Z,16.6
2023-10-04T06:57:16.746Z,16.6
2023-10-04T06:58:47.197Z,16.6
2023-10-04T07:00:18.021Z,16.6
2023-10-04T07:01:48.622Z,16.6
2023-10-04T07:03:19.548Z,16.6
2023-10-04T07:04:50.103Z,16.6
2023-10-04T07:06:20.577Z,16.6
2023-10-04T07:07:51.056Z,16.6
2023-10-04T07:09:21.694Z,16.6
2023-10-04T07:10:52.237Z,16.6
2023-10-04T07:12:22.791Z,16.6
2023-10-04T07:13:53.282Z,16.6
2023-10-04T07:15:23.871Z,16.6
2023-10-04T07:16:54.394Z,16.6
2023-10-04T07:18:25.184Z,16.6
2023-10-04T07:19:55.790Z,16.6
2023-10-04T07:21:26.324Z,16.6
2023-10-04T07:22:56.781Z,16.6
2023-10-04T07:24:27.304Z,16.6
2023-10-04T07:25:58.075Z,16.6
2023-10-04T07:27:28.880Z,16.6
2023-10-04T07:28:59.387Z,16.6
2023-10-04T07:30:31.462Z,16.6
2023-10-04T07:30:48.631Z,16.6
2023-10-04T07:32:19.121Z,16.6
2023-10-04T07:33:49.716Z,16.6
2023-10-04T07:35:20.279Z,16.6
2023-10-04T07:36:50.874Z,16.6
2023-10-04T07:38:21.383Z,16.6
2023-10-04T07:39:51.911Z,16.6
2023-10-04T07:41:22.366Z,16.6
2023-10-04T07:42:52.870Z,16.6
2023-10-04T07:44:23.308Z,16.6
2023-10-04T07:45:54.120Z,16.6
2023-10-04T07:47:24.649Z,16.6
2023-10-04T07:48:55.156Z,16.6
2023-10-04T07:50:25.686Z,16.6
2023-10-04T07:51:56.229Z,16.6
2023-10-04T07:53:26.639Z,16.6
2023-10-04T07:54:57.075Z,16.6
2023-10-04T07:56:27.482Z,16.6
2023-10-04T07:57:57.911Z,16.6
2023-10-04T07:59:28.356Z,16.6
2023-10-04T08:00:59.306Z,16.6
2023-10-04T08:03:21.993Z,16.6
2023-10-04T08:04:52.582Z,16.6
2023-10-04T08:06:23.235Z,16.6
2023-10-04T08:07:53.724Z,16.6
2023-10-04T08:09:24.246Z,16.6
2023-10-04T08:10:54.721Z,16.6
2023-10-04T08:12:25.212Z,16.6
2023-10-04T08:13:55.714Z,16.6
2023-10-04T08:15:26.294Z,16.6
2023-10-04T08:16:57.166Z,16.6
2023-10-04T08:18:28.055Z,16.6
2023-10-04T08:19:58.566Z,16.6
2023-10-04T08:21:29.118Z,16.6
2023-10-04T08:22:59.913Z,16.6
2023-10-04T08:24:30.638Z,16.6
2023-10-04T08:26:01.188Z,16.6
2023-10-04T08:27:31.708Z,16.6
2023-10-04T08:29:02.221Z,16.6
2023-10-04T08:30:33.033Z,16.6
2023-10-04T08:32:03.639Z,16.6
2023-10-04T08:33:34.392Z,16.6
2023-10-04T08:35:04.924Z,16.6
2023-10-04T08:36:35.443Z,16.6
2023-10-04T08:38:06.146Z,16.6
2023-10-04T08:39:36.690Z,16.6
2023-10-04T08:41:07.223Z,16.6
2023-10-04T08:42:37.761Z,16.6
2023-10-04T08:44:08.414Z,16.6
2023-10-04T08:45:39.553Z,16.6
2023-10-04T08:47:10.109Z,16.6
2023-10-04T08:48:40.910Z,16.6
2023-10-04T08:50:11.488Z,16.6
2023-10-04T08:51:42.005Z,16.6
2023-10-04T08:53:12.533Z,16.6
2023-10-04T08:54:43.001Z,16.6
2023-10-04T08:56:13.546Z,16.6
2023-10-04T08:57:44.087Z,16.6
2023-10-04T08:59:14.514Z,16.6
2023-10-04T09:00:45.361Z,16.6
2023-10-04T09:02:16.075Z,16.6
2023-10-04T09:03:47.730Z,16.6
2023-10-04T09:05:18.332Z,16.5
2023-10-04T09:06:48.878Z,16.6
2023-10-04T09:08:19.400Z,16.6
2023-10-04T09:09:49.909Z,16.6
2023-10-04T09:11:20.445Z,16.6
2023-10-04T09:13:01.604Z,16.6
2023-10-04T09:14:32.045Z,16.5
2023-10-04T09:16:02.608Z,16.6
2023-10-04T09:17:33.404Z,16.5
2023-10-04T09:19:04.167Z,16.6
2023-10-04T09:20:34.699Z,16.5
2023-10-04T09:22:05.156Z,16.6
2023-10-04T09:23:35.669Z,16.5
2023-10-04T09:25:06.227Z,16.5
2023-10-04T09:26:36.661Z,16.5
2023-10-04T09:28:07.150Z,16.5
2023-10-04T09:29:37.692Z,16.5
2023-10-04T09:31:08.471Z,16.5
2023-10-04T09:32:39.487Z,16.5
2023-10-04T09:34:10.056Z,16.5
2023-10-04T09:35:40.480Z,16.5
2023-10-04T09:37:10.895Z,16.6
2023-10-04T09:38:41.515Z,16.5
2023-10-04T09:40:12.062Z,16.5
2023-10-04T09:41:42.569Z,16.5
2023-10-04T09:43:13.003Z,16.5
2023-10-04T09:44:43.412Z,16.5
2023-10-04T09:46:15.449Z,16.5
2023-10-04T09:47:46.127Z,16.5
2023-10-04T09:49:16.677Z,16.5
2023-10-04T09:50:47.286Z,16.5
2023-10-04T09:52:17.914Z,16.5
2023-10-04T09:54:06.538Z,16.5
2023-10-04T09:55:37.103Z,16.5
2023-10-04T09:57:07.751Z,16.5
2023-10-04T09:58:38.261Z,16.5
2023-10-04T10:00:08.781Z,16.5
2023-10-04T10:01:39.368Z,16.5
2023-10-04T10:03:09.939Z,16.5
2023-10-04T10:04:40.440Z,16.5
2023-10-04T10:06:11.005Z,16.5
2023-10-04T10:07:41.518Z,16.5
2023-10-04T10:09:12.013Z,16.5
2023-10-04T10:10:42.585Z,16.5
2023-10-04T10:12:13.186Z,16.5
2023-10-04T10:13:43.672Z,16.5
2023-10-04T10:15:14.305Z,16.5
2023-10-04T10:16:45.018Z,16.5
2023-10-04T10:18:16.114Z,16.5
2023-10-04T10:19:46.632Z,16.5
2023-10-04T10:21:17.213Z,16.5
2023-10-04T10:22:47.801Z,16.5
2023-10-04T10:24:18.316Z,16.5
2023-10-04T10:25:48.930Z,16.5
2023-10-04T10:27:19.471Z,16.5
2023-10-04T10:28:49.998Z,16.5
2023-10-04T10:30:20.684Z,16.5
2023-10-04T10:31:51.144Z,16.5
2023-10-04T10:33:22.300Z,16.5
2023-10-04T10:34:52.898Z,16.5
2023-10-04T10:36:23.463Z,16.5
2023-10-04T10:37:54.092Z,16.5
2023-10-04T10:39:24.614Z,16.5
2023-10-04T10:40:55.182Z,16.5
2023-10-04T10:42:25.899Z,16.5
2023-10-04T10:44:12.341Z,16.5
2023-10-04T10:45:43.186Z,16.5
2023-10-04T10:47:13.720Z,16.5
2023-10-04T10:48:44.617Z,16.5
2023-10-04T10:50:15.186Z,16.5
2023-10-04T10:51:45.895Z,16.5
2023-10-04T10:53:16.422Z,16.5
2023-10-04T10:54:46.991Z,16.5
2023-10-04T10:56:17.469Z,16.5
2023-10-04T10:57:48.080Z,16.5
2023-10-04T10:59:18.510Z,16.5
2023-10-04T11:00:49.106Z,16.5
2023-10-04T11:02:19.780Z,16.4
2023-10-04T11:03:50.614Z,16.5
2023-10-04T11:05:21.137Z,16.5
2023-10-04T11:06:51.824Z,16.4
2023-10-04T11:08:22.422Z,16.4
2023-10-04T11:09:53.583Z,16.4
2023-10-04T11:11:24.297Z,16.4
2023-10-04T11:12:54.817Z,16.4
2023-10-04T11:14:25.412Z,16.5
2023-10-04T11:15:57.037Z,16.4
2023-10-04T11:17:27.639Z,16.4
2023-10-04T11:18:58.432Z,16.4
2023-10-04T11:20:29.004Z,16.4
2023-10-04T11:21:59.567Z,16.4
2023-10-04T11:23:30.074Z,16.4
2023-10-04T11:25:00.610Z,16.4
2023-10-04T11:26:31.151Z,16.4
2023-10-04T11:28:02.307Z,16.4
2023-10-04T11:29:32.896Z,16.4
2023-10-04T11:31:03.811Z,16.4
2023-10-04T11:32:34.374Z,16.4
2023-10-04T11:34:05.595Z,16.4
2023-10-04T11:35:36.322Z,16.4
2023-10-04T11:37:06.858Z,16.4
2023-10-04T11:38:37.337Z,16.4
2023-10-04T11:40:07.856Z,16.4
2023-10-04T11:41:38.370Z,16.4
2023-10-04T11:43:26.082Z,16.4
2023-10-04T11:44:56.646Z,16.4
2023-10-04T11:46:27.174Z,16.4
2023-10-04T11:47:57.800Z,16.4
2023-10-04T11:49:28.345Z,16.4
2023-10-04T11:50:58.740Z,16.4
2023-10-04T11:52:29.170Z,16.4
2023-10-04T11:54:00.227Z,16.4
2023-10-04T11:55:30.742Z,16.4
2023-10-04T11:57:01.155Z,16.4
2023-10-04T11:58:31.561Z,16.4
2023-10-04T12:00:01.974Z,16.4
2023-10-04T12:01:32.447Z,16.4
2023-10-04T12:03:02.933Z,16.4
2023-10-04T12:04:33.863Z,16.4
2023-10-04T12:06:04.402Z,16.4
2023-10-04T12:07:34.802Z,16.4
2023-10-04T12:09:05.221Z,16.4
2023-10-04T12:10:35.636Z,16.4
2023-10-04T12:12:06.076Z,16.4
2023-10-04T12:13:36.476Z,16.4
2023-10-04T12:15:06.900Z,16.4
2023-10-04T12:16:37.399Z,16.4
2023-10-04T12:18:07.945Z,16.4
2023-10-04T12:19:38.664Z,16.4
2023-10-04T12:21:09.219Z,16.4
2023-10-04T12:22:39.713Z,16.4
2023-10-04T12:24:10.150Z,16.4
2023-10-04T12:25:40.878Z,16.4
2023-10-04T12:27:13.880Z,16.4
2023-10-04T12:28:44.517Z,16.4
2023-10-04T12:30:15.039Z,16.4
2023-10-04T12:31:45.608Z,16.4
2023-10-04T12:33:16.227Z,16.4
2023-10-04T12:34:47.053Z,16.4
2023-10-04T12:36:17.794Z,16.4
2023-10-04T12:37:48.320Z,16.4
2023-10-04T12:39:19.130Z,16.4
2023-10-04T12:40:49.588Z,16.4
2023-10-04T12:42:20.061Z,16.4
2023-10-04T12:43:50.634Z,16.4
2023-10-04T12:45:21.114Z,16.4
2023-10-04T12:46:51.671Z,16.4
2023-10-04T12:48:22.273Z,16.4
2023-10-04T12:49:52.914Z,16.4
2023-10-04T12:51:23.524Z,16.4
2023-10-04T12:52:54.206Z,16.4
2023-10-04T12:54:24.977Z,16.4
2023-10-04T12:55:55.564Z,16.4
2023-10-04T12:57:26.140Z,16.4
2023-10-04T12:58:56.842Z,16.4
2023-10-04T13:00:27.408Z,16.4
2023-10-04T13:01:57.990Z,16.4
2023-10-04T13:03:28.759Z,16.4
2023-10-04T13:04:59.615Z,16.4
2023-10-04T13:06:30.303Z,16.4
2023-10-04T13:08:00.835Z,16.4
2023-10-04T13:09:56.451Z,16.4
2023-10-04T13:11:29.015Z,16.4
2023-10-04T13:12:59.521Z,16.4
2023-10-04T13:14:30.046Z,16.4
2023-10-04T13:16:00.717Z,16.4
2023-10-04T13:17:31.307Z,16.4
2023-10-04T13:19:01.930Z,16.4
2023-10-04T13:20:32.470Z,16.4
2023-10-04T13:22:03.141Z,16.4
2023-10-04T13:23:33.598Z,16.4
2023-10-04T13:25:04.130Z,16.4
2023-10-04T13:26:34.696Z,16.4
2023-10-04T13:28:05.274Z,16.4
2023-10-04T13:29:35.800Z,16.4
2023-10-04T13:31:06.307Z,16.4
2023-10-04T13:32:53.775Z,16.4
2023-10-04T13:34:24.253Z,16.4
2023-10-04T13:35:54.842Z,16.4
2023-10-04T13:37:25.297Z,16.4
2023-10-04T13:38:55.736Z,16.4
2023-10-04T13:40:26.300Z,16.4
2023-10-04T13:41:56.808Z,16.4
2023-10-04T13:43:27.295Z,16.4
2023-10-04T13:44:57.757Z,16.4
2023-10-04T13:46:28.762Z,16.4
2023-10-04T13:47:59.383Z,16.4
2023-10-04T13:49:29.908Z,16.4
2023-10-04T13:51:00.691Z,16.4
2023-10-04T13:52:31.245Z,16.4
2023-10-04T13:54:01.677Z,16.4
2023-10-04T13:55:32.085Z,16.4
2023-10-04T13:57:02.507Z,16.4
2023-10-04T13:58:32.922Z,16.4
2023-10-04T14:00:03.393Z,16.4
2023-10-04T14:03:24.922Z,16.4
2023-10-04T14:04:55.519Z,16.4
2023-10-04T14:06:26.193Z,16.4
2023-10-04T14:07:57.095Z,16.4
2023-10-04T14:09:27.631Z,16.4
2023-10-04T14:10:58.078Z,16.4
2023-10-04T14:12:28.593Z,16.4
2023-10-04T14:13:59.133Z,16.4
2023-10-04T14:15:29.870Z,16.4
2023-10-04T14:17:00.568Z,16.4
2023-10-04T14:18:31.178Z,16.4
2023-10-04T14:20:01.671Z,16.4
2023-10-04T14:21:32.244Z,16.4
2023-10-04T14:23:02.685Z,16.4
2023-10-04T14:24:33.259Z,16.4
2023-10-04T14:26:03.706Z,16.4
2023-10-04T14:27:34.192Z,16.4
2023-10-04T14:29:05.250Z,16.4
2023-10-04T14:30:35.872Z,16.4
2023-10-04T14:32:06.359Z,16.4
2023-10-04T14:33:37.037Z,16.4
2023-10-04T14:35:07.601Z,16.4
2023-10-04T14:36:38.221Z,16.4
2023-10-04T14:38:08.728Z,16.4
2023-10-04T14:39:39.313Z,16.4
2023-10-04T14:41:09.796Z,16.4
2023-10-04T14:42:40.382Z,16.4
2023-10-04T14:44:10.911Z,16.4
2023-10-04T14:45:41.667Z,16.4
2023-10-04T14:47:12.279Z,16.4
2023-10-04T14:48:42.758Z,16.4
2023-10-04T14:50:13.227Z,16.4
2023-10-04T14:51:43.967Z,16.4
2023-10-04T14:53:14.459Z,16.4
2023-10-04T14:54:45.195Z,16.4
2023-10-04T14:56:15.821Z,16.4
2023-10-04T14:57:46.401Z,16.4
2023-10-04T14:59:16.857Z,16.4
2023-10-04T15:00:48.005Z,16.4
2023-10-04T15:02:18.506Z,16.4
2023-10-04T15:03:49.602Z,16.4
2023-10-04T15:05:21.154Z,16.4
2023-10-04T15:06:52.000Z,16.4
2023-10-04T15:08:23.059Z,16.4
2023-10-04T15:09:53.555Z,16.4
2023-10-04T15:11:24.064Z,16.4
2023-10-04T15:12:54.650Z,16.4
2023-10-04T15:14:25.179Z,16.4
2023-10-04T15:16:13.124Z,16.4
2023-10-04T15:17:43.993Z,16.4
2023-10-04T15:19:14.451Z,16.4
2023-10-04T15:20:44.964Z,16.4
2023-10-04T15:22:15.412Z,16.4
2023-10-04T15:23:45.929Z,16.4
2023-10-04T15:25:16.436Z,16.4
2023-10-04T15:26:47.230Z,16.4
2023-10-04T15:28:17.719Z,16.4
2023-10-04T15:29:48.205Z,16.4
2023-10-04T15:31:18.848Z,16.4
2023-10-04T15:32:49.425Z,16.4
2023-10-04T15:34:20.036Z,16.4
2023-10-04T15:35:50.508Z,16.4
2023-10-04T15:37:21.099Z,16.4
2023-10-04T15:38:51.585Z,16.4
2023-10-04T15:40:22.066Z,16.4
2023-10-04T15:41:52.514Z,16.4
2023-10-04T15:43:23.019Z,16.4
2023-10-04T15:44:53.521Z,16.4
2023-10-04T15:46:24.157Z,16.4
2023-10-04T15:47:54.749Z,16.4
2023-10-04T15:49:25.357Z,16.4
2023-10-04T15:50:55.830Z,16.4
2023-10-04T15:52:26.278Z,16.4
2023-10-04T15:54:13.578Z,16.4
2023-10-04T15:55:44.001Z,16.4
2023-10-04T15:57:14.433Z,16.4
2023-10-04T15:58:44.933Z,16.4
2023-10-04T16:00:15.365Z,16.4
2023-10-04T16:01:45.860Z,16.4
2023-10-04T16:03:16.715Z,16.4
2023-10-04T16:04:47.430Z,16.4
2023-10-04T16:06:18.231Z,16.4
2023-10-04T16:07:48.709Z,16.4
2023-10-04T16:09:19.105Z,16.4
2023-10-04T16:10:49.545Z,16.4
2023-10-04T16:12:19.997Z,16.4
2023-10-04T16:13:50.607Z,16.4
2023-10-04T16:15:21.161Z,16.4
2023-10-04T16:16:51.616Z,16.4
2023-10-04T16:18:22.118Z,16.4
2023-10-04T16:19:52.564Z,16.4
2023-10-04T16:21:23.394Z,16.4
2023-10-04T16:22:53.936Z,16.4
2023-10-04T16:24:24.455Z,16.4
2023-10-04T16:25:54.954Z,16.4
2023-10-04T16:27:25.426Z,16.4
2023-10-04T16:28:55.937Z,16.4
2023-10-04T16:30:27.301Z,16.4
2023-10-04T16:31:57.950Z,16.4
2023-10-04T16:33:28.484Z,16.4
2023-10-04T16:34:58.965Z,16.4
2023-10-04T16:36:29.709Z,16.4
2023-10-04T16:38:00.257Z,16.4
2023-10-04T16:39:30.794Z,16.4
2023-10-04T16:41:01.212Z,16.4
2023-10-04T16:42:31.707Z,16.4
2023-10-04T16:44:02.272Z,16.4
2023-10-04T16:45:32.872Z,16.4
2023-10-04T16:47:06.422Z,16.4
2023-10-04T16:48:36.999Z,16.4
2023-10-04T16:50:07.587Z,16.4
2023-10-04T16:51:38.076Z,16.4
2023-10-04T16:53:08.643Z,16.4
2023-10-04T16:54:39.174Z,16.4
2023-10-04T16:56:09.611Z,16.4
2023-10-04T16:57:40.072Z,16.4
2023-10-04T16:59:10.556Z,16.4
2023-10-04T17:00:43.402Z,16.4
2023-10-04T17:02:13.902Z,16.4
2023-10-04T17:03:44.486Z,16.4
2023-10-04T17:05:15.389Z,16.4
2023-10-04T17:06:46.221Z,16.4
2023-10-04T17:08:16.747Z,16.4
2023-10-04T17:09:47.186Z,16.4
2023-10-04T17:11:17.618Z,16.4
2023-10-04T17:12:48.446Z,16.4
2023-10-04T17:14:19.054Z,16.4
2023-10-04T17:15:49.832Z,16.4
2023-10-04T17:17:20.356Z,16.4
2023-10-04T17:18:50.924Z,16.4
2023-10-04T17:20:21.359Z,16.4
2023-10-04T17:21:51.881Z,16.4
2023-10-04T17:23:22.609Z,16.4
2023-10-04T17:24:53.351Z,16.4
2023-10-04T17:26:23.872Z,16.4
2023-10-04T17:27:54.620Z,16.4
2023-10-04T17:29:25.102Z,16.4
2023-10-04T17:30:55.592Z,16.4
2023-10-04T17:32:26.202Z,16.4
2023-10-04T17:33:56.744Z,16.4
2023-10-04T17:35:27.203Z,16.4
2023-10-04T17:36:57.703Z,16.4
2023-10-04T17:38:28.162Z,16.4
2023-10-04T17:39:58.839Z,16.4
2023-10-04T17:41:29.410Z,16.4
2023-10-04T17:43:16.817Z,16.4
2023-10-04T17:44:47.242Z,16.4
2023-10-04T17:46:17.981Z,16.4
2023-10-04T17:47:48.592Z,16.4
2023-10-04T17:49:19.109Z,16.4
2023-10-04T17:50:49.634Z,16.4
2023-10-04T17:52:20.197Z,16.4
2023-10-04T17:53:50.702Z,16.4
2023-10-04T17:55:21.199Z,16.4
2023-10-04T17:56:51.620Z,16.4
2023-10-04T17:58:22.179Z,16.4
2023-10-04T17:59:52.652Z,16.4
2023-10-04T18:01:23.461Z,16.4
2023-10-04T18:02:54.023Z,16.4
2023-10-04T18:04:24.714Z,16.4
2023-10-04T18:05:55.269Z,16.4
2023-10-04T18:07:25.706Z,16.4
2023-10-04T18:08:57.096Z,16.4
2023-10-04T18:10:27.554Z,16.4
2023-10-04T18:11:57.981Z,16.4
2023-10-04T18:13:28.398Z,16.4
2023-10-04T18:14:58.982Z,16.4
2023-10-04T18:16:29.448Z,16.4
2023-10-04T18:18:00.336Z,16.4
2023-10-04T18:19:31.107Z,16.4
2023-10-04T18:21:01.621Z,16.4
2023-10-04T18:22:32.082Z,16.4
2023-10-04T18:24:02.728Z,16.4
2023-10-04T18:25:33.192Z,16.4
2023-10-04T18:27:03.721Z,16.4
2023-10-04T18:28:34.133Z,16.4
2023-10-04T18:30:04.550Z,16.4
2023-10-04T18:31:39.920Z,16.4
2023-10-04T18:33:10.834Z,16.4
2023-10-04T18:34:41.337Z,16.4
2023-10-04T18:36:11.778Z,16.4
2023-10-04T18:37:42.200Z,16.4
2023-10-04T18:39:12.767Z,16.4
2023-10-04T18:40:43.226Z,16.4
2023-10-04T18:42:13.642Z,16.4
2023-10-04T18:43:44.074Z,16.4
2023-10-04T18:45:14.502Z,16.4
2023-10-04T18:46:45.338Z,16.4
2023-10-04T18:48:15.883Z,16.4
2023-10-04T18:49:46.373Z,16.4
2023-10-04T18:51:16.776Z,16.4
2023-10-04T18:52:47.203Z,16.4
2023-10-04T18:54:17.796Z,16.4
2023-10-04T18:55:48.370Z,16.4
2023-10-04T18:57:18.767Z,16.4
2023-10-04T18:58:49.181Z,16.4
2023-10-04T19:00:19.621Z,16.4
2023-10-04T19:01:50.382Z,16.4
2023-10-04T19:03:21.300Z,16.4
2023-10-04T19:05:08.385Z,16.4
2023-10-04T19:06:39.007Z,16.4
2023-10-04T19:08:09.527Z,16.4
2023-10-04T19:09:40.066Z,16.4
2023-10-04T19:11:10.468Z,16.4
2023-10-04T19:12:41.003Z,16.4
2023-10-04T19:14:11.533Z,16.4
2023-10-04T19:15:42.121Z,16.3
2023-10-04T19:17:12.664Z,16.4
2023-10-04T19:18:43.171Z,16.4
2023-10-04T19:20:13.736Z,16.4
2023-10-04T19:21:44.295Z,16.4
2023-10-04T19:23:14.781Z,16.4
2023-10-04T19:24:45.314Z,16.4
2023-10-04T19:26:15.816Z,16.4
2023-10-04T19:27:46.317Z,16.4
2023-10-04T19:29:16.769Z,16.4
2023-10-04T19:30:47.373Z,16.3
2023-10-04T19:32:35.141Z,16.4
2023-10-04T19:34:06.379Z,16.4
2023-10-04T19:35:37.060Z,16.4
2023-10-04T19:37:07.579Z,16.4
2023-10-04T19:38:38.111Z,16.4
2023-10-04T19:40:08.754Z,16.3
2023-10-04T19:41:39.254Z,16.3
2023-10-04T19:43:09.764Z,16.4
2023-10-04T19:44:40.218Z,16.4
2023-10-04T19:46:10.855Z,16.3
2023-10-04T19:47:41.535Z,16.4
2023-10-04T19:49:13.219Z,16.3
2023-10-04T19:50:43.782Z,16.3
2023-10-04T19:52:14.460Z,16.4
2023-10-04T19:53:44.965Z,16.4
2023-10-04T19:55:15.497Z,16.4
2023-10-04T19:56:45.938Z,16.3
2023-10-04T19:58:16.853Z,16.3
2023-10-04T19:59:47.367Z,16.4
2023-10-04T20:01:18.033Z,16.3
2023-10-04T20:02:48.806Z,16.3
2023-10-04T20:04:19.523Z,16.4
2023-10-04T20:05:50.082Z,16.3
2023-10-04T20:07:20.498Z,16.3
2023-10-04T20:08:50.917Z,16.3
2023-10-04T20:10:21.443Z,16.3